aviador You're here:

KPUW Decoded Metar

PULLMAN/MOSCOW in WA, USA
Report Time2018-02-25 23:14:00
UTC Time2018-02-25 23:41:34
Flight Rules vfr VFR
Wind240° at 23 Gusting to 29 kt
W.Decomp.*RWY 24: 22.2 kt HW 6 kt LCW
W.Rank240° ranks 4
Current wind is above 240° avg. (11.7)
Visibility9999 m
Phenomena:N/A
Clouds:Scattered 020 Hf
Scattered 026 Hf
Overcast 045 Hf
Expected CloudBase > 800 ft AGL from Temp-Dew spread
Ceiling4,500 ft
Temp03°C (ISA -7)
Dew Point01°C (87% RH)
AAT-7.1°C
QNH1006 hPa
Density Alt2,034 ft
Elevation2,536 ft
Report Wrong Elevation
Raw Report
KPUW 252314Z AUTO 24023G29KT 10SM SCT020 SCT026 OVC045 03/01 A2970
RMK AO2 PK WND 24037/2304 T00280006=

Extra information for KPUW:More info

Metar Taf Metar & Taf Last 4 Metars F.Rules Stats Wind Profile Meteogram Temp Stats Airport Information Weather charts Add Link Nearby VenuesMetar ALERT Operation Metar Decoded Social comments

AIRNAV info for KPUW